VLG1106 LIRQ-LEBL
Flight info
| Callsign | VLG1106 |
|---|---|
| Flight time | 1h 26m |
| Altitude | 34000 |
| Route | BALUK M730 BEROK DCT OTMUV DCT GEKBA DCT VAMTU UM984 DIVKO UN975 NILDU N975 BISBA |
| Aircraft | A319/M-SDE3FGHIRWY/LB1 |
Departure
| Time | 2026-05-06 16:42 |
|---|---|
| Airport | Florence Airport, Peretola (LIRQ) |
Arrival
| Time | 2026-05-06 18:09 |
|---|---|
| Airport | Josep Tarradellas Barcelona-El Prat Airport (LEBL) |
| Time | Latitude | Longitude | Altitude | Speed | Heading |
|---|---|---|---|---|---|
| 2026-05-06 16:20 | 43.80312 | 11.20074 | 125 ft | 0 kts | 136° |
| 2026-05-06 16:31 | 43.80315 | 11.20069 | 124 ft | 1 kts | 134° |
| 2026-05-06 16:32 | 43.80320 | 11.20062 | 119 ft | 1 kts | 135° |
| 2026-05-06 16:32 | 43.80325 | 11.20056 | 119 ft | 1 kts | 134° |
| 2026-05-06 16:32 | 43.80330 | 11.20049 | 119 ft | 1 kts | 134° |
| 2026-05-06 16:32 | 43.80335 | 11.20042 | 119 ft | 1 kts | 135° |
| 2026-05-06 16:33 | 43.80339 | 11.20035 | 119 ft | 1 kts | 135° |
| 2026-05-06 16:33 | 43.80344 | 11.20029 | 120 ft | 1 kts | 136° |
| 2026-05-06 16:33 | 43.80351 | 11.20020 | 121 ft | 1 kts | 120° |
| 2026-05-06 16:34 | 43.80354 | 11.19997 | 119 ft | 1 kts | 94° |
| 2026-05-06 16:34 | 43.80354 | 11.19990 | 122 ft | 1 kts | 95° |
| 2026-05-06 16:34 | 43.80355 | 11.19983 | 119 ft | 0 kts | 97° |
| 2026-05-06 16:35 | 43.80354 | 11.19983 | 119 ft | 0 kts | 96° |
| 2026-05-06 16:36 | 43.80354 | 11.19992 | 123 ft | 2 kts | 96° |
| 2026-05-06 16:36 | 43.80356 | 11.20006 | 119 ft | 1 kts | 68° |
| 2026-05-06 16:36 | 43.80361 | 11.20012 | 119 ft | 1 kts | 40° |
| 2026-05-06 16:36 | 43.80366 | 11.20015 | 119 ft | 1 kts | 30° |
| 2026-05-06 16:37 | 43.80370 | 11.20018 | 122 ft | 0 kts | 27° |
| 2026-05-06 16:37 | 43.80376 | 11.20022 | 122 ft | 1 kts | 26° |
| 2026-05-06 16:37 | 43.80391 | 11.20024 | 122 ft | 4 kts | 4° |
| 2026-05-06 16:37 | 43.80425 | 11.20024 | 122 ft | 6 kts | 1° |
| 2026-05-06 16:38 | 43.80471 | 11.20027 | 124 ft | 6 kts | 359° |
| 2026-05-06 16:38 | 43.80511 | 11.20000 | 124 ft | 7 kts | 325° |
| 2026-05-06 16:38 | 43.80561 | 11.19996 | 124 ft | 8 kts | 11° |
| 2026-05-06 16:38 | 43.80620 | 11.20015 | 124 ft | 10 kts | 13° |
| 2026-05-06 16:39 | 43.80702 | 11.20055 | 125 ft | 14 kts | 31° |
| 2026-05-06 16:39 | 43.80777 | 11.20158 | 126 ft | 17 kts | 48° |
| 2026-05-06 16:39 | 43.80865 | 11.20300 | 124 ft | 22 kts | 50° |
| 2026-05-06 16:39 | 43.80972 | 11.20467 | 125 ft | 25 kts | 47° |
| 2026-05-06 16:40 | 43.81096 | 11.20653 | 128 ft | 27 kts | 48° |
| 2026-05-06 16:40 | 43.81223 | 11.20849 | 136 ft | 28 kts | 48° |
| 2026-05-06 16:40 | 43.81261 | 11.21086 | 142 ft | 26 kts | 94° |
| 2026-05-06 16:40 | 43.81289 | 11.21265 | 143 ft | 16 kts | 49° |
| 2026-05-06 16:41 | 43.81369 | 11.21373 | 147 ft | 16 kts | 22° |
| 2026-05-06 16:41 | 43.81479 | 11.21343 | 147 ft | 18 kts | 331° |
| 2026-05-06 16:41 | 43.81455 | 11.21206 | 147 ft | 17 kts | 227° |
| 2026-05-06 16:41 | 43.81445 | 11.21191 | 147 ft | 0 kts | 227° |
| 2026-05-06 16:42 | 43.81357 | 11.21057 | 142 ft | 58 kts | 228° |
| 2026-05-06 16:42 | 43.80916 | 11.20371 | 125 ft | 130 kts | 228° |
| 2026-05-06 16:42 | 43.80265 | 11.19372 | 620 ft | 141 kts | 231° |
| 2026-05-06 16:42 | 43.79962 | 11.18113 | 1159 ft | 143 kts | 276° |
| 2026-05-06 16:43 | 43.80326 | 11.16823 | 1832 ft | 147 kts | 295° |
| 2026-05-06 16:43 | 43.80565 | 11.15920 | 2167 ft | 153 kts | 272° |
| 2026-05-06 16:43 | 43.80506 | 11.14351 | 2538 ft | 175 kts | 266° |
| 2026-05-06 16:43 | 43.80569 | 11.12559 | 2885 ft | 200 kts | 272° |
| 2026-05-06 16:44 | 43.80701 | 11.10542 | 3494 ft | 214 kts | 272° |
| 2026-05-06 16:44 | 43.80845 | 11.08490 | 4467 ft | 215 kts | 272° |
| 2026-05-06 16:44 | 43.80983 | 11.06433 | 5407 ft | 215 kts | 272° |
| 2026-05-06 16:44 | 43.81110 | 11.04359 | 6337 ft | 217 kts | 271° |
| 2026-05-06 16:45 | 43.81666 | 11.01633 | 7430 ft | 229 kts | 297° |
| 2026-05-06 16:45 | 43.82335 | 11.00488 | 8005 ft | 235 kts | 313° |
| 2026-05-06 16:45 | 43.83762 | 10.99300 | 8883 ft | 247 kts | 337° |
| 2026-05-06 16:45 | 43.85504 | 10.99049 | 9753 ft | 259 kts | 0° |
| 2026-05-06 16:46 | 43.87307 | 10.99243 | 10543 ft | 262 kts | 0° |
| 2026-05-06 16:46 | 43.89140 | 10.99437 | 11335 ft | 266 kts | 360° |
| 2026-05-06 16:46 | 43.90997 | 10.99631 | 12119 ft | 270 kts | 359° |
| 2026-05-06 16:46 | 43.92915 | 10.99819 | 12860 ft | 279 kts | 358° |
| 2026-05-06 16:47 | 43.94936 | 10.99951 | 13209 ft | 302 kts | 357° |
| 2026-05-06 16:47 | 43.97117 | 11.00052 | 13535 ft | 326 kts | 357° |
| 2026-05-06 16:47 | 43.99437 | 10.99843 | 13817 ft | 343 kts | 341° |
| 2026-05-06 16:47 | 44.01619 | 10.98481 | 14185 ft | 346 kts | 319° |
| 2026-05-06 16:48 | 44.03290 | 10.96123 | 14801 ft | 341 kts | 298° |
| 2026-05-06 16:48 | 44.04268 | 10.93159 | 15490 ft | 337 kts | 283° |
| 2026-05-06 16:48 | 44.04957 | 10.90026 | 16213 ft | 341 kts | 282° |
| 2026-05-06 16:48 | 44.05638 | 10.86849 | 16920 ft | 345 kts | 282° |
| 2026-05-06 16:49 | 44.06321 | 10.83627 | 17636 ft | 349 kts | 282° |
| 2026-05-06 16:49 | 44.07009 | 10.80363 | 18314 ft | 354 kts | 282° |
| 2026-05-06 16:49 | 44.07708 | 10.77071 | 18949 ft | 357 kts | 282° |
| 2026-05-06 16:49 | 44.08417 | 10.73738 | 19597 ft | 360 kts | 282° |
| 2026-05-06 16:50 | 44.09127 | 10.70395 | 20257 ft | 362 kts | 282° |
| 2026-05-06 16:50 | 44.09841 | 10.67032 | 20917 ft | 364 kts | 282° |
| 2026-05-06 16:50 | 44.10566 | 10.63644 | 21549 ft | 367 kts | 282° |
| 2026-05-06 16:50 | 44.11307 | 10.60226 | 22203 ft | 370 kts | 283° |
| 2026-05-06 16:51 | 44.12053 | 10.56789 | 22873 ft | 372 kts | 282° |
| 2026-05-06 16:51 | 44.12790 | 10.53328 | 23501 ft | 375 kts | 282° |
| 2026-05-06 16:51 | 44.13523 | 10.49830 | 24009 ft | 377 kts | 282° |
| 2026-05-06 16:51 | 44.14257 | 10.46278 | 24538 ft | 378 kts | 281° |
| 2026-05-06 16:52 | 44.14973 | 10.42792 | 25044 ft | 380 kts | 281° |
| 2026-05-06 16:52 | 44.15714 | 10.39201 | 25568 ft | 381 kts | 281° |
| 2026-05-06 16:52 | 44.16380 | 10.35637 | 26067 ft | 380 kts | 276° |
| 2026-05-06 16:52 | 44.16644 | 10.31994 | 26560 ft | 377 kts | 268° |
| 2026-05-06 16:53 | 44.16740 | 10.28339 | 27039 ft | 379 kts | 268° |
| 2026-05-06 16:53 | 44.16840 | 10.24666 | 27536 ft | 380 kts | 268° |
| 2026-05-06 16:53 | 44.16941 | 10.20979 | 28026 ft | 381 kts | 268° |
| 2026-05-06 16:53 | 44.17041 | 10.17288 | 28506 ft | 383 kts | 268° |
| 2026-05-06 16:54 | 44.17140 | 10.13568 | 28967 ft | 385 kts | 268° |
| 2026-05-06 16:54 | 44.17237 | 10.09839 | 29436 ft | 386 kts | 268° |
| 2026-05-06 16:54 | 44.17332 | 10.06090 | 29889 ft | 388 kts | 268° |
| 2026-05-06 16:54 | 44.17429 | 10.02333 | 30272 ft | 389 kts | 268° |
| 2026-05-06 16:55 | 44.17527 | 9.98560 | 30649 ft | 391 kts | 268° |
| 2026-05-06 16:55 | 44.17622 | 9.94773 | 31031 ft | 392 kts | 268° |
| 2026-05-06 16:55 | 44.17714 | 9.90973 | 31393 ft | 393 kts | 268° |
| 2026-05-06 16:55 | 44.17807 | 9.87160 | 31767 ft | 394 kts | 268° |
| 2026-05-06 16:56 | 44.17898 | 9.83354 | 32268 ft | 392 kts | 268° |
| 2026-05-06 16:56 | 44.17986 | 9.79580 | 32784 ft | 389 kts | 267° |
| 2026-05-06 16:56 | 44.18075 | 9.75823 | 33297 ft | 386 kts | 267° |
| 2026-05-06 16:56 | 44.18162 | 9.72052 | 33774 ft | 385 kts | 267° |
| 2026-05-06 16:57 | 44.18247 | 9.68336 | 33897 ft | 380 kts | 267° |
| 2026-05-06 16:57 | 44.18329 | 9.64717 | 33910 ft | 369 kts | 266° |
| 2026-05-06 16:57 | 44.18408 | 9.61170 | 33904 ft | 364 kts | 266° |
| 2026-05-06 16:58 | 44.18554 | 9.54146 | 33897 ft | 362 kts | 266° |
| 2026-05-06 16:58 | 44.18696 | 9.47139 | 33897 ft | 361 kts | 266° |
| 2026-05-06 16:59 | 44.18836 | 9.40147 | 33890 ft | 361 kts | 266° |
| 2026-05-06 16:59 | 44.18978 | 9.33158 | 33891 ft | 360 kts | 266° |
| 2026-05-06 17:00 | 44.19110 | 9.26178 | 33883 ft | 360 kts | 266° |
| 2026-05-06 17:00 | 44.19235 | 9.19207 | 33887 ft | 360 kts | 266° |
| 2026-05-06 17:01 | 44.19356 | 9.12244 | 33883 ft | 360 kts | 265° |
| 2026-05-06 17:01 | 44.19477 | 9.05276 | 33887 ft | 359 kts | 266° |
| 2026-05-06 17:02 | 44.19829 | 8.98258 | 33884 ft | 362 kts | 269° |
| 2026-05-06 17:02 | 44.20338 | 8.91288 | 33891 ft | 362 kts | 269° |
| 2026-05-06 17:03 | 44.20825 | 8.84315 | 33877 ft | 361 kts | 269° |
| 2026-05-06 17:03 | 44.21275 | 8.77359 | 33875 ft | 360 kts | 268° |
| 2026-05-06 17:04 | 44.21700 | 8.70406 | 33889 ft | 360 kts | 268° |
| 2026-05-06 17:04 | 44.22118 | 8.63447 | 33868 ft | 360 kts | 268° |
| 2026-05-06 17:05 | 44.22544 | 8.56480 | 33857 ft | 361 kts | 268° |
| 2026-05-06 17:05 | 44.22963 | 8.49515 | 33844 ft | 361 kts | 268° |
| 2026-05-06 17:06 | 44.23379 | 8.42540 | 33834 ft | 360 kts | 268° |
| 2026-05-06 17:06 | 44.23791 | 8.35578 | 33832 ft | 361 kts | 268° |
| 2026-05-06 17:07 | 44.24203 | 8.28564 | 33827 ft | 360 kts | 268° |
| 2026-05-06 17:07 | 44.24606 | 8.21594 | 33824 ft | 360 kts | 267° |
| 2026-05-06 17:08 | 44.25002 | 8.14629 | 33822 ft | 361 kts | 268° |
| 2026-05-06 17:08 | 44.25401 | 8.07643 | 33817 ft | 361 kts | 267° |
| 2026-05-06 17:09 | 44.25791 | 8.00653 | 33816 ft | 361 kts | 267° |
| 2026-05-06 17:09 | 44.26174 | 7.93673 | 33811 ft | 361 kts | 267° |
| 2026-05-06 17:10 | 44.26556 | 7.86695 | 33806 ft | 361 kts | 267° |
| 2026-05-06 17:10 | 44.26137 | 7.79872 | 33790 ft | 349 kts | 248° |
| 2026-05-06 17:11 | 44.23770 | 7.74036 | 33788 ft | 344 kts | 228° |
| 2026-05-06 17:11 | 44.20217 | 7.69522 | 33786 ft | 346 kts | 223° |
| 2026-05-06 17:12 | 44.16614 | 7.65075 | 33792 ft | 346 kts | 223° |
| 2026-05-06 17:12 | 44.13208 | 7.60370 | 33789 ft | 345 kts | 230° |
| 2026-05-06 17:13 | 44.10590 | 7.56162 | 33796 ft | 346 kts | 229° |
| 2026-05-06 17:13 | 44.07433 | 7.51118 | 33809 ft | 346 kts | 230° |
| 2026-05-06 17:14 | 44.04277 | 7.46087 | 33814 ft | 345 kts | 229° |
| 2026-05-06 17:14 | 44.01103 | 7.41020 | 33823 ft | 345 kts | 229° |
| 2026-05-06 17:15 | 43.97946 | 7.35994 | 33828 ft | 345 kts | 229° |
| 2026-05-06 17:15 | 43.94790 | 7.30984 | 33830 ft | 344 kts | 229° |
| 2026-05-06 17:16 | 43.91644 | 7.25988 | 33826 ft | 343 kts | 229° |
| 2026-05-06 17:16 | 43.88503 | 7.21020 | 33829 ft | 343 kts | 229° |
| 2026-05-06 17:17 | 43.85357 | 7.16046 | 33827 ft | 343 kts | 229° |
| 2026-05-06 17:17 | 43.82209 | 7.11078 | 33824 ft | 343 kts | 229° |
| 2026-05-06 17:18 | 43.79056 | 7.06117 | 33825 ft | 343 kts | 229° |
| 2026-05-06 17:18 | 43.75899 | 7.01152 | 33829 ft | 344 kts | 229° |
| 2026-05-06 17:19 | 43.72785 | 6.96131 | 33822 ft | 344 kts | 234° |
| 2026-05-06 17:19 | 43.70682 | 6.90170 | 33830 ft | 347 kts | 245° |
| 2026-05-06 17:20 | 43.68856 | 6.83951 | 33831 ft | 347 kts | 244° |
| 2026-05-06 17:20 | 43.67027 | 6.77776 | 33830 ft | 347 kts | 244° |
| 2026-05-06 17:21 | 43.65199 | 6.71600 | 33829 ft | 348 kts | 244° |
| 2026-05-06 17:21 | 43.63373 | 6.65421 | 33838 ft | 348 kts | 244° |
| 2026-05-06 17:22 | 43.61542 | 6.59238 | 33842 ft | 348 kts | 244° |
| 2026-05-06 17:22 | 43.59700 | 6.53056 | 33861 ft | 349 kts | 244° |
| 2026-05-06 17:23 | 43.57850 | 6.46869 | 33866 ft | 349 kts | 244° |
| 2026-05-06 17:23 | 43.55996 | 6.40678 | 33871 ft | 349 kts | 244° |
| 2026-05-06 17:24 | 43.54128 | 6.34448 | 33872 ft | 349 kts | 244° |
| 2026-05-06 17:24 | 43.52271 | 6.28262 | 33879 ft | 350 kts | 244° |
| 2026-05-06 17:25 | 43.50411 | 6.22073 | 33875 ft | 350 kts | 244° |
| 2026-05-06 17:25 | 43.48543 | 6.15880 | 33874 ft | 350 kts | 244° |
| 2026-05-06 17:26 | 43.46665 | 6.09681 | 33877 ft | 351 kts | 244° |
| 2026-05-06 17:26 | 43.44787 | 6.03486 | 33881 ft | 351 kts | 244° |
| 2026-05-06 17:27 | 43.42899 | 5.97282 | 33882 ft | 351 kts | 244° |
| 2026-05-06 17:27 | 43.41006 | 5.91082 | 33891 ft | 352 kts | 244° |
| 2026-05-06 17:28 | 43.39105 | 5.84879 | 33891 ft | 352 kts | 244° |
| 2026-05-06 17:28 | 43.37205 | 5.78677 | 33900 ft | 352 kts | 244° |
| 2026-05-06 17:29 | 43.35287 | 5.72432 | 33902 ft | 352 kts | 244° |
| 2026-05-06 17:29 | 43.33377 | 5.66226 | 33902 ft | 353 kts | 244° |
| 2026-05-06 17:30 | 43.31460 | 5.60023 | 33907 ft | 353 kts | 244° |
| 2026-05-06 17:30 | 43.29539 | 5.53814 | 33905 ft | 353 kts | 244° |
| 2026-05-06 17:31 | 43.27620 | 5.47616 | 33907 ft | 353 kts | 244° |
| 2026-05-06 17:31 | 43.25693 | 5.41423 | 33903 ft | 353 kts | 244° |
| 2026-05-06 17:32 | 43.23756 | 5.35227 | 33911 ft | 353 kts | 244° |
| 2026-05-06 17:32 | 43.21819 | 5.29031 | 33903 ft | 354 kts | 244° |
| 2026-05-06 17:33 | 43.19884 | 5.22822 | 33910 ft | 354 kts | 244° |
| 2026-05-06 17:33 | 43.17941 | 5.16617 | 33907 ft | 354 kts | 244° |
| 2026-05-06 17:34 | 43.15984 | 5.10417 | 33901 ft | 355 kts | 244° |
| 2026-05-06 17:34 | 43.14014 | 5.04180 | 33901 ft | 355 kts | 244° |
| 2026-05-06 17:35 | 43.12054 | 4.97973 | 33907 ft | 355 kts | 244° |
| 2026-05-06 17:35 | 43.10093 | 4.91775 | 33905 ft | 355 kts | 244° |
| 2026-05-06 17:36 | 43.07135 | 4.82462 | 33912 ft | 356 kts | 244° |
| 2026-05-06 17:36 | 43.04638 | 4.76684 | 33909 ft | 354 kts | 229° |
| 2026-05-06 17:37 | 43.01009 | 4.72121 | 33912 ft | 355 kts | 223° |
| 2026-05-06 17:37 | 42.97309 | 4.67640 | 33905 ft | 355 kts | 223° |
| 2026-05-06 17:38 | 42.93605 | 4.63159 | 33908 ft | 356 kts | 223° |
| 2026-05-06 17:38 | 42.89871 | 4.58657 | 33914 ft | 356 kts | 223° |
| 2026-05-06 17:39 | 42.86160 | 4.54189 | 33916 ft | 356 kts | 223° |
| 2026-05-06 17:39 | 42.82442 | 4.49722 | 33916 ft | 356 kts | 223° |
| 2026-05-06 17:40 | 42.78715 | 4.45260 | 33917 ft | 357 kts | 223° |
| 2026-05-06 17:40 | 42.74989 | 4.40805 | 33919 ft | 357 kts | 223° |
| 2026-05-06 17:41 | 42.71259 | 4.36346 | 33924 ft | 357 kts | 224° |
| 2026-05-06 17:41 | 42.67527 | 4.31890 | 33925 ft | 357 kts | 223° |
| 2026-05-06 17:42 | 42.63785 | 4.27435 | 33926 ft | 358 kts | 223° |
| 2026-05-06 17:42 | 42.60044 | 4.22985 | 33926 ft | 358 kts | 224° |
| 2026-05-06 17:43 | 42.56295 | 4.18535 | 33926 ft | 358 kts | 223° |
| 2026-05-06 17:43 | 42.52546 | 4.14094 | 33925 ft | 358 kts | 224° |
| 2026-05-06 17:44 | 42.49411 | 4.10375 | 33926 ft | 358 kts | 224° |
| 2026-05-06 17:44 | 42.45655 | 4.05937 | 33928 ft | 358 kts | 224° |
| 2026-05-06 17:45 | 42.41887 | 4.01488 | 33564 ft | 363 kts | 224° |
| 2026-05-06 17:45 | 42.39988 | 3.99250 | 33031 ft | 360 kts | 223° |
| 2026-05-06 17:45 | 42.38115 | 3.97049 | 32562 ft | 354 kts | 223° |
| 2026-05-06 17:46 | 42.36268 | 3.94883 | 32103 ft | 349 kts | 223° |
| 2026-05-06 17:46 | 42.34446 | 3.92745 | 31662 ft | 344 kts | 224° |
| 2026-05-06 17:46 | 42.32651 | 3.90637 | 31226 ft | 340 kts | 224° |
| 2026-05-06 17:46 | 42.30852 | 3.88524 | 30789 ft | 335 kts | 224° |
| 2026-05-06 17:47 | 42.29124 | 3.86496 | 30371 ft | 332 kts | 224° |
| 2026-05-06 17:47 | 42.27371 | 3.84443 | 29942 ft | 328 kts | 224° |
| 2026-05-06 17:47 | 42.25648 | 3.82430 | 29420 ft | 326 kts | 224° |
| 2026-05-06 17:47 | 42.23937 | 3.80430 | 28959 ft | 324 kts | 224° |
| 2026-05-06 17:48 | 42.22232 | 3.78439 | 28481 ft | 323 kts | 224° |
| 2026-05-06 17:48 | 42.20540 | 3.76464 | 28014 ft | 321 kts | 224° |
| 2026-05-06 17:48 | 42.18858 | 3.74499 | 27570 ft | 318 kts | 224° |
| 2026-05-06 17:48 | 42.17194 | 3.72555 | 27135 ft | 316 kts | 224° |
| 2026-05-06 17:49 | 42.15540 | 3.70623 | 26707 ft | 313 kts | 224° |
| 2026-05-06 17:49 | 42.13896 | 3.68705 | 26289 ft | 311 kts | 224° |
| 2026-05-06 17:49 | 42.12262 | 3.66802 | 25877 ft | 310 kts | 224° |
| 2026-05-06 17:49 | 42.10636 | 3.64909 | 25462 ft | 308 kts | 224° |
| 2026-05-06 17:50 | 42.09020 | 3.63029 | 25051 ft | 306 kts | 224° |
| 2026-05-06 17:50 | 42.07511 | 3.61002 | 24711 ft | 314 kts | 229° |
| 2026-05-06 17:50 | 42.05973 | 3.58826 | 24399 ft | 326 kts | 229° |
| 2026-05-06 17:50 | 42.04393 | 3.56610 | 23981 ft | 329 kts | 229° |
| 2026-05-06 17:51 | 42.02803 | 3.54397 | 23504 ft | 328 kts | 229° |
| 2026-05-06 17:51 | 42.01221 | 3.52203 | 22954 ft | 327 kts | 229° |
| 2026-05-06 17:51 | 41.99642 | 3.50012 | 22406 ft | 325 kts | 229° |
| 2026-05-06 17:51 | 41.98071 | 3.47830 | 21872 ft | 324 kts | 229° |
| 2026-05-06 17:52 | 41.96484 | 3.45621 | 21341 ft | 324 kts | 229° |
| 2026-05-06 17:52 | 41.94922 | 3.43444 | 20819 ft | 323 kts | 229° |
| 2026-05-06 17:52 | 41.93361 | 3.41272 | 20308 ft | 323 kts | 228° |
| 2026-05-06 17:52 | 41.91801 | 3.39105 | 19810 ft | 323 kts | 228° |
| 2026-05-06 17:53 | 41.90246 | 3.36946 | 19311 ft | 322 kts | 228° |
| 2026-05-06 17:53 | 41.88685 | 3.34781 | 18835 ft | 322 kts | 228° |
| 2026-05-06 17:53 | 41.87125 | 3.32625 | 18412 ft | 321 kts | 228° |
| 2026-05-06 17:53 | 41.85564 | 3.30465 | 18169 ft | 323 kts | 228° |
| 2026-05-06 17:54 | 41.84004 | 3.28300 | 17896 ft | 323 kts | 228° |
| 2026-05-06 17:54 | 41.82442 | 3.26133 | 17623 ft | 322 kts | 228° |
| 2026-05-06 17:54 | 41.80889 | 3.23983 | 17351 ft | 321 kts | 228° |
| 2026-05-06 17:54 | 41.79329 | 3.21828 | 17071 ft | 321 kts | 228° |
| 2026-05-06 17:55 | 41.77776 | 3.19687 | 16817 ft | 320 kts | 228° |
| 2026-05-06 17:55 | 41.76228 | 3.17558 | 16564 ft | 319 kts | 228° |
| 2026-05-06 17:55 | 41.74676 | 3.15427 | 16298 ft | 319 kts | 228° |
| 2026-05-06 17:55 | 41.73134 | 3.13309 | 16038 ft | 318 kts | 228° |
| 2026-05-06 17:56 | 41.71594 | 3.11191 | 15911 ft | 316 kts | 228° |
| 2026-05-06 17:56 | 41.70058 | 3.09075 | 15945 ft | 318 kts | 228° |
| 2026-05-06 17:56 | 41.68515 | 3.06950 | 15947 ft | 318 kts | 228° |
| 2026-05-06 17:56 | 41.66975 | 3.04833 | 15948 ft | 318 kts | 228° |
| 2026-05-06 17:57 | 41.65325 | 3.02858 | 15946 ft | 320 kts | 217° |
| 2026-05-06 17:57 | 41.63367 | 3.01386 | 15451 ft | 328 kts | 208° |
| 2026-05-06 17:57 | 41.61304 | 3.00102 | 15107 ft | 324 kts | 207° |
| 2026-05-06 17:57 | 41.59239 | 2.98838 | 14689 ft | 322 kts | 207° |
| 2026-05-06 17:58 | 41.57201 | 2.97593 | 14268 ft | 321 kts | 207° |
| 2026-05-06 17:58 | 41.55175 | 2.96350 | 13852 ft | 319 kts | 208° |
| 2026-05-06 17:58 | 41.53358 | 2.94701 | 13397 ft | 314 kts | 226° |
| 2026-05-06 17:58 | 41.52106 | 2.92368 | 12945 ft | 309 kts | 246° |
| 2026-05-06 17:59 | 41.51412 | 2.89671 | 12482 ft | 307 kts | 254° |
| 2026-05-06 17:59 | 41.50789 | 2.86950 | 12032 ft | 306 kts | 254° |
| 2026-05-06 17:59 | 41.50170 | 2.84242 | 11591 ft | 304 kts | 254° |
| 2026-05-06 17:59 | 41.49553 | 2.81549 | 11158 ft | 303 kts | 254° |
| 2026-05-06 18:00 | 41.48938 | 2.78875 | 10721 ft | 301 kts | 254° |
| 2026-05-06 18:00 | 41.48323 | 2.76210 | 10322 ft | 299 kts | 253° |
| 2026-05-06 18:00 | 41.47719 | 2.73608 | 10201 ft | 288 kts | 253° |
| 2026-05-06 18:00 | 41.47134 | 2.71097 | 9881 ft | 283 kts | 254° |
| 2026-05-06 18:01 | 41.46546 | 2.68573 | 9438 ft | 283 kts | 254° |
| 2026-05-06 18:01 | 41.45967 | 2.66085 | 9044 ft | 280 kts | 254° |
| 2026-05-06 18:01 | 41.45393 | 2.63611 | 8617 ft | 279 kts | 254° |
| 2026-05-06 18:01 | 41.44822 | 2.61145 | 8195 ft | 277 kts | 254° |
| 2026-05-06 18:02 | 41.44252 | 2.58692 | 7771 ft | 276 kts | 254° |
| 2026-05-06 18:02 | 41.43684 | 2.56256 | 7352 ft | 274 kts | 254° |
| 2026-05-06 18:02 | 41.43118 | 2.53831 | 6929 ft | 273 kts | 255° |
| 2026-05-06 18:02 | 41.42555 | 2.51421 | 6513 ft | 271 kts | 254° |
| 2026-05-06 18:03 | 41.41997 | 2.49034 | 6007 ft | 269 kts | 254° |
| 2026-05-06 18:03 | 41.41442 | 2.46664 | 5511 ft | 267 kts | 254° |
| 2026-05-06 18:03 | 41.40887 | 2.44291 | 4857 ft | 271 kts | 254° |
| 2026-05-06 18:03 | 41.40321 | 2.41881 | 4266 ft | 271 kts | 253° |
| 2026-05-06 18:04 | 41.39770 | 2.39552 | 4070 ft | 256 kts | 253° |
| 2026-05-06 18:04 | 41.39251 | 2.37355 | 3946 ft | 240 kts | 253° |
| 2026-05-06 18:04 | 41.38766 | 2.35297 | 3839 ft | 227 kts | 253° |
| 2026-05-06 18:04 | 41.38296 | 2.33302 | 3740 ft | 225 kts | 253° |
| 2026-05-06 18:05 | 41.37757 | 2.31385 | 3571 ft | 222 kts | 247° |
| 2026-05-06 18:05 | 41.37133 | 2.29502 | 3205 ft | 222 kts | 245° |
| 2026-05-06 18:05 | 41.36503 | 2.27671 | 2997 ft | 210 kts | 245° |
| 2026-05-06 18:05 | 41.35906 | 2.25944 | 3003 ft | 201 kts | 245° |
| 2026-05-06 18:06 | 41.35362 | 2.24363 | 3008 ft | 177 kts | 245° |
| 2026-05-06 18:06 | 41.34873 | 2.22938 | 3004 ft | 165 kts | 245° |
| 2026-05-06 18:06 | 41.34401 | 2.21562 | 2868 ft | 161 kts | 245° |
| 2026-05-06 18:06 | 41.33934 | 2.20200 | 2438 ft | 162 kts | 244° |
| 2026-05-06 18:07 | 41.33466 | 2.18836 | 2036 ft | 160 kts | 243° |
| 2026-05-06 18:07 | 41.33033 | 2.17570 | 2018 ft | 145 kts | 243° |
| 2026-05-06 18:07 | 41.32629 | 2.16359 | 1872 ft | 142 kts | 242° |
| 2026-05-06 18:07 | 41.32241 | 2.15160 | 1519 ft | 141 kts | 243° |
| 2026-05-06 18:08 | 41.31848 | 2.13966 | 1129 ft | 142 kts | 242° |
| 2026-05-06 18:08 | 41.31430 | 2.12778 | 695 ft | 143 kts | 240° |
| 2026-05-06 18:08 | 41.31004 | 2.11592 | 324 ft | 140 kts | 241° |
| 2026-05-06 18:08 | 41.30595 | 2.10429 | 94 ft | 138 kts | 240° |
| 2026-05-06 18:09 | 41.30174 | 2.09335 | 17 ft | 118 kts | 234° |
| 2026-05-06 18:09 | 41.29967 | 2.08654 | 24 ft | 63 kts | 256° |
| 2026-05-06 18:09 | 41.29848 | 2.08345 | 22 ft | 27 kts | 229° |
| 2026-05-06 18:09 | 41.29753 | 2.08238 | 19 ft | 0 kts | 214° |
| 2026-05-06 18:10 | 41.29752 | 2.08237 | 19 ft | 0 kts | 214° |
| 2026-05-06 18:11 | 41.29751 | 2.08235 | 19 ft | 1 kts | 214° |
| 2026-05-06 18:11 | 41.29729 | 2.08216 | 20 ft | 6 kts | 214° |
| 2026-05-06 18:12 | 41.29721 | 2.08209 | 19 ft | 0 kts | 215° |
| 2026-05-06 18:14 | 41.29707 | 2.08195 | 19 ft | 6 kts | 216° |
| 2026-05-06 18:14 | 41.29656 | 2.08145 | 19 ft | 13 kts | 216° |
| 2026-05-06 18:14 | 41.29606 | 2.08092 | 18 ft | 2 kts | 221° |
| 2026-05-06 18:15 | 41.29591 | 2.08060 | 17 ft | 6 kts | 249° |
| 2026-05-06 18:15 | 41.29572 | 2.07998 | 19 ft | 8 kts | 247° |
| 2026-05-06 18:15 | 41.29545 | 2.07925 | 20 ft | 9 kts | 244° |
| 2026-05-06 18:15 | 41.29518 | 2.07844 | 21 ft | 10 kts | 240° |
| 2026-05-06 18:16 | 41.29449 | 2.07830 | 20 ft | 12 kts | 158° |
| 2026-05-06 18:16 | 41.29357 | 2.07886 | 19 ft | 17 kts | 155° |
| 2026-05-06 18:16 | 41.29255 | 2.07945 | 16 ft | 9 kts | 163° |
| 2026-05-06 18:16 | 41.29238 | 2.07931 | 15 ft | 3 kts | 226° |
| 2026-05-06 18:17 | 41.29223 | 2.07895 | 15 ft | 6 kts | 244° |
| 2026-05-06 18:17 | 41.29192 | 2.07866 | 15 ft | 7 kts | 179° |
| 2026-05-06 18:17 | 41.29141 | 2.07895 | 16 ft | 9 kts | 156° |
| 2026-05-06 18:17 | 41.29128 | 2.07902 | 14 ft | 0 kts | 156° |